IGO225M VOMM-VOBL
Flight info
| Callsign | IGO225M |
|---|---|
| Flight time | 0h 47m |
| Altitude | 20000 |
| Route | MMV W117 BIA |
| Aircraft | A320/M-SDE3FGHIRWY/LB1 |
Departure
| Time | 2026-05-08 07:33 |
|---|---|
| Airport | Chennai International Airport (VOMM) |
Arrival
| Time | 2026-05-08 08:21 |
|---|---|
| Airport | Kempegowda International Airport Bengaluru (VOBL) |
| Time | Latitude | Longitude | Altitude | Speed | Heading |
|---|---|---|---|---|---|
| 2026-05-08 06:54 | 12.98395 | 80.16443 | 55 ft | 0 kts | 158° |
| 2026-05-08 07:23 | 12.98401 | 80.16441 | 47 ft | 3 kts | 158° |
| 2026-05-08 07:24 | 12.98419 | 80.16434 | 53 ft | 2 kts | 163° |
| 2026-05-08 07:24 | 12.98439 | 80.16430 | 49 ft | 3 kts | 188° |
| 2026-05-08 07:24 | 12.98459 | 80.16437 | 51 ft | 3 kts | 216° |
| 2026-05-08 07:24 | 12.98475 | 80.16452 | 54 ft | 3 kts | 244° |
| 2026-05-08 07:25 | 12.98477 | 80.16457 | 49 ft | 0 kts | 249° |
| 2026-05-08 07:27 | 12.98472 | 80.16444 | 51 ft | 3 kts | 249° |
| 2026-05-08 07:27 | 12.98460 | 80.16411 | 53 ft | 6 kts | 249° |
| 2026-05-08 07:27 | 12.98442 | 80.16360 | 53 ft | 9 kts | 249° |
| 2026-05-08 07:28 | 12.98418 | 80.16294 | 55 ft | 11 kts | 250° |
| 2026-05-08 07:28 | 12.98390 | 80.16215 | 55 ft | 13 kts | 250° |
| 2026-05-08 07:28 | 12.98357 | 80.16124 | 54 ft | 15 kts | 250° |
| 2026-05-08 07:28 | 12.98317 | 80.16019 | 55 ft | 17 kts | 248° |
| 2026-05-08 07:29 | 12.98286 | 80.15929 | 51 ft | 10 kts | 263° |
| 2026-05-08 07:29 | 12.98304 | 80.15855 | 53 ft | 12 kts | 287° |
| 2026-05-08 07:29 | 12.98330 | 80.15765 | 51 ft | 14 kts | 286° |
| 2026-05-08 07:29 | 12.98358 | 80.15665 | 50 ft | 16 kts | 286° |
| 2026-05-08 07:30 | 12.98383 | 80.15569 | 55 ft | 11 kts | 285° |
| 2026-05-08 07:30 | 12.98388 | 80.15552 | 52 ft | 0 kts | 285° |
| 2026-05-08 07:30 | 12.98390 | 80.15542 | 54 ft | 3 kts | 285° |
| 2026-05-08 07:31 | 12.98400 | 80.15506 | 56 ft | 7 kts | 285° |
| 2026-05-08 07:31 | 12.98420 | 80.15457 | 52 ft | 9 kts | 309° |
| 2026-05-08 07:31 | 12.98476 | 80.15460 | 56 ft | 10 kts | 47° |
| 2026-05-08 07:31 | 12.98493 | 80.15502 | 50 ft | 1 kts | 68° |
| 2026-05-08 07:32 | 12.98498 | 80.15515 | 53 ft | 3 kts | 68° |
| 2026-05-08 07:32 | 12.98539 | 80.15626 | 51 ft | 47 kts | 69° |
| 2026-05-08 07:32 | 12.98740 | 80.16158 | 51 ft | 109 kts | 69° |
| 2026-05-08 07:32 | 12.99063 | 80.17035 | 55 ft | 154 kts | 68° |
| 2026-05-08 07:33 | 12.99488 | 80.18122 | 464 ft | 164 kts | 74° |
| 2026-05-08 07:33 | 12.99897 | 80.19222 | 1129 ft | 165 kts | 67° |
| 2026-05-08 07:33 | 13.00715 | 80.20050 | 1561 ft | 178 kts | 20° |
| 2026-05-08 07:33 | 13.02018 | 80.20140 | 1731 ft | 204 kts | 358° |
| 2026-05-08 07:34 | 13.03514 | 80.19947 | 1967 ft | 226 kts | 353° |
| 2026-05-08 07:34 | 13.05149 | 80.19677 | 2304 ft | 246 kts | 353° |
| 2026-05-08 07:34 | 13.06889 | 80.19392 | 2773 ft | 264 kts | 354° |
| 2026-05-08 07:34 | 13.08733 | 80.19088 | 3521 ft | 270 kts | 350° |
| 2026-05-08 07:35 | 13.10464 | 80.18269 | 4324 ft | 280 kts | 323° |
| 2026-05-08 07:35 | 13.11729 | 80.16757 | 5126 ft | 286 kts | 305° |
| 2026-05-08 07:35 | 13.12847 | 80.15055 | 5968 ft | 289 kts | 305° |
| 2026-05-08 07:35 | 13.13974 | 80.13332 | 6800 ft | 293 kts | 305° |
| 2026-05-08 07:36 | 13.15118 | 80.11583 | 7630 ft | 297 kts | 306° |
| 2026-05-08 07:36 | 13.16278 | 80.09806 | 8447 ft | 299 kts | 304° |
| 2026-05-08 07:36 | 13.17119 | 80.07860 | 9187 ft | 306 kts | 284° |
| 2026-05-08 07:36 | 13.17285 | 80.05661 | 9933 ft | 312 kts | 264° |
| 2026-05-08 07:37 | 13.16742 | 80.03515 | 10608 ft | 319 kts | 249° |
| 2026-05-08 07:37 | 13.15888 | 80.01316 | 10807 ft | 342 kts | 248° |
| 2026-05-08 07:37 | 13.14960 | 79.98970 | 10938 ft | 364 kts | 248° |
| 2026-05-08 07:37 | 13.13984 | 79.96515 | 11260 ft | 376 kts | 248° |
| 2026-05-08 07:38 | 13.12988 | 79.94006 | 11828 ft | 381 kts | 248° |
| 2026-05-08 07:38 | 13.11999 | 79.91503 | 12450 ft | 384 kts | 248° |
| 2026-05-08 07:38 | 13.10988 | 79.88934 | 13092 ft | 387 kts | 248° |
| 2026-05-08 07:38 | 13.09984 | 79.86381 | 13711 ft | 390 kts | 248° |
| 2026-05-08 07:39 | 13.08976 | 79.83777 | 14229 ft | 392 kts | 251° |
| 2026-05-08 07:39 | 13.08347 | 79.81086 | 14753 ft | 394 kts | 263° |
| 2026-05-08 07:39 | 13.08269 | 79.78262 | 15306 ft | 395 kts | 275° |
| 2026-05-08 07:39 | 13.08743 | 79.75506 | 15835 ft | 396 kts | 284° |
| 2026-05-08 07:40 | 13.09431 | 79.72756 | 16373 ft | 397 kts | 284° |
| 2026-05-08 07:40 | 13.10124 | 79.69990 | 16903 ft | 399 kts | 284° |
| 2026-05-08 07:40 | 13.10804 | 79.67261 | 17460 ft | 400 kts | 283° |
| 2026-05-08 07:40 | 13.11496 | 79.64469 | 18006 ft | 402 kts | 283° |
| 2026-05-08 07:41 | 13.12180 | 79.61697 | 18476 ft | 404 kts | 283° |
| 2026-05-08 07:41 | 13.12868 | 79.58911 | 18897 ft | 406 kts | 283° |
| 2026-05-08 07:41 | 13.13565 | 79.56092 | 19323 ft | 409 kts | 283° |
| 2026-05-08 07:41 | 13.14267 | 79.53250 | 19708 ft | 411 kts | 283° |
| 2026-05-08 07:42 | 13.14973 | 79.50394 | 19841 ft | 412 kts | 283° |
| 2026-05-08 07:42 | 13.15684 | 79.47523 | 19884 ft | 425 kts | 283° |
| 2026-05-08 07:42 | 13.16424 | 79.44529 | 19880 ft | 438 kts | 283° |
| 2026-05-08 07:42 | 13.17175 | 79.41486 | 19879 ft | 445 kts | 283° |
| 2026-05-08 07:43 | 13.17937 | 79.38393 | 19875 ft | 448 kts | 283° |
| 2026-05-08 07:43 | 13.18704 | 79.35281 | 19878 ft | 448 kts | 283° |
| 2026-05-08 07:43 | 13.19462 | 79.32205 | 19880 ft | 448 kts | 283° |
| 2026-05-08 07:43 | 13.20231 | 79.29103 | 19879 ft | 447 kts | 283° |
| 2026-05-08 07:44 | 13.21004 | 79.25985 | 19884 ft | 448 kts | 283° |
| 2026-05-08 07:44 | 13.21764 | 79.22921 | 19886 ft | 447 kts | 283° |
| 2026-05-08 07:44 | 13.22533 | 79.19808 | 19888 ft | 447 kts | 283° |
| 2026-05-08 07:44 | 13.23288 | 79.16748 | 19891 ft | 447 kts | 283° |
| 2026-05-08 07:45 | 13.24051 | 79.13659 | 19892 ft | 447 kts | 283° |
| 2026-05-08 07:45 | 13.24814 | 79.10555 | 19892 ft | 447 kts | 283° |
| 2026-05-08 07:45 | 13.25578 | 79.07453 | 19895 ft | 446 kts | 283° |
| 2026-05-08 07:45 | 13.26331 | 79.04404 | 19895 ft | 446 kts | 283° |
| 2026-05-08 07:46 | 13.27095 | 79.01305 | 19896 ft | 446 kts | 283° |
| 2026-05-08 07:46 | 13.27856 | 78.98213 | 19896 ft | 446 kts | 283° |
| 2026-05-08 07:46 | 13.28607 | 78.95154 | 19888 ft | 446 kts | 283° |
| 2026-05-08 07:46 | 13.29174 | 78.92018 | 19900 ft | 445 kts | 275° |
| 2026-05-08 07:47 | 13.29230 | 78.88867 | 19905 ft | 444 kts | 265° |
| 2026-05-08 07:47 | 13.28998 | 78.85702 | 19906 ft | 444 kts | 265° |
| 2026-05-08 07:47 | 13.28770 | 78.82538 | 19898 ft | 443 kts | 265° |
| 2026-05-08 07:47 | 13.28546 | 78.79400 | 19902 ft | 443 kts | 265° |
| 2026-05-08 07:48 | 13.28320 | 78.76221 | 19904 ft | 443 kts | 265° |
| 2026-05-08 07:48 | 13.28096 | 78.73100 | 19905 ft | 443 kts | 265° |
| 2026-05-08 07:48 | 13.27868 | 78.69930 | 19906 ft | 443 kts | 265° |
| 2026-05-08 07:48 | 13.27638 | 78.66769 | 19909 ft | 443 kts | 265° |
| 2026-05-08 07:49 | 13.27409 | 78.63649 | 19913 ft | 443 kts | 265° |
| 2026-05-08 07:49 | 13.27180 | 78.60485 | 19898 ft | 443 kts | 265° |
| 2026-05-08 07:49 | 13.26949 | 78.57305 | 19911 ft | 444 kts | 265° |
| 2026-05-08 07:49 | 13.26721 | 78.54178 | 19913 ft | 444 kts | 265° |
| 2026-05-08 07:50 | 13.26489 | 78.51020 | 19909 ft | 444 kts | 265° |
| 2026-05-08 07:50 | 13.26280 | 78.47850 | 19911 ft | 444 kts | 268° |
| 2026-05-08 07:50 | 13.26455 | 78.44674 | 19919 ft | 445 kts | 278° |
| 2026-05-08 07:50 | 13.26961 | 78.41536 | 19917 ft | 445 kts | 279° |
| 2026-05-08 07:51 | 13.27464 | 78.38440 | 19915 ft | 445 kts | 279° |
| 2026-05-08 07:51 | 13.27969 | 78.35300 | 19919 ft | 445 kts | 279° |
| 2026-05-08 07:51 | 13.28473 | 78.32140 | 19924 ft | 446 kts | 278° |
| 2026-05-08 07:51 | 13.28966 | 78.29026 | 19923 ft | 446 kts | 278° |
| 2026-05-08 07:52 | 13.29463 | 78.25860 | 19925 ft | 446 kts | 278° |
| 2026-05-08 07:52 | 13.29955 | 78.22711 | 19926 ft | 446 kts | 278° |
| 2026-05-08 07:52 | 13.30366 | 78.19583 | 19925 ft | 446 kts | 273° |
| 2026-05-08 07:52 | 13.30444 | 78.16401 | 19925 ft | 446 kts | 270° |
| 2026-05-08 07:53 | 13.30492 | 78.13243 | 19928 ft | 446 kts | 270° |
| 2026-05-08 07:53 | 13.30540 | 78.10088 | 19938 ft | 431 kts | 270° |
| 2026-05-08 07:53 | 13.30580 | 78.07219 | 19625 ft | 413 kts | 270° |
| 2026-05-08 07:53 | 13.30617 | 78.04294 | 18295 ft | 415 kts | 270° |
| 2026-05-08 07:54 | 13.30655 | 78.01292 | 17291 ft | 421 kts | 270° |
| 2026-05-08 07:54 | 13.30695 | 77.98328 | 17097 ft | 406 kts | 271° |
| 2026-05-08 07:54 | 13.30737 | 77.95493 | 16873 ft | 393 kts | 271° |
| 2026-05-08 07:54 | 13.30778 | 77.92742 | 16770 ft | 377 kts | 271° |
| 2026-05-08 07:55 | 13.30816 | 77.90084 | 16611 ft | 365 kts | 271° |
| 2026-05-08 07:55 | 13.30849 | 77.87552 | 16459 ft | 353 kts | 271° |
| 2026-05-08 07:55 | 13.30881 | 77.85047 | 16307 ft | 343 kts | 271° |
| 2026-05-08 07:55 | 13.30911 | 77.82653 | 16160 ft | 333 kts | 271° |
| 2026-05-08 07:56 | 13.30942 | 77.80290 | 16013 ft | 325 kts | 271° |
| 2026-05-08 07:56 | 13.30974 | 77.78011 | 15874 ft | 317 kts | 271° |
| 2026-05-08 07:56 | 13.31002 | 77.75732 | 15400 ft | 322 kts | 271° |
| 2026-05-08 07:56 | 13.31023 | 77.73397 | 14888 ft | 328 kts | 271° |
| 2026-05-08 07:57 | 13.31040 | 77.71067 | 14399 ft | 333 kts | 271° |
| 2026-05-08 07:57 | 13.31058 | 77.68661 | 13887 ft | 338 kts | 272° |
| 2026-05-08 07:57 | 13.31076 | 77.66220 | 13331 ft | 343 kts | 272° |
| 2026-05-08 07:57 | 13.31096 | 77.63792 | 12812 ft | 345 kts | 272° |
| 2026-05-08 07:58 | 13.31116 | 77.61302 | 12289 ft | 347 kts | 272° |
| 2026-05-08 07:58 | 13.31135 | 77.58812 | 11774 ft | 349 kts | 272° |
| 2026-05-08 07:58 | 13.31151 | 77.56334 | 11272 ft | 350 kts | 272° |
| 2026-05-08 07:58 | 13.31166 | 77.53867 | 10769 ft | 340 kts | 272° |
| 2026-05-08 07:59 | 13.31182 | 77.51468 | 10278 ft | 331 kts | 272° |
| 2026-05-08 07:59 | 13.31191 | 77.49124 | 9789 ft | 323 kts | 272° |
| 2026-05-08 07:59 | 13.31198 | 77.46873 | 9265 ft | 317 kts | 272° |
| 2026-05-08 07:59 | 13.31210 | 77.44626 | 8749 ft | 311 kts | 272° |
| 2026-05-08 08:00 | 13.31225 | 77.42411 | 8222 ft | 306 kts | 272° |
| 2026-05-08 08:00 | 13.31101 | 77.40306 | 8006 ft | 291 kts | 256° |
| 2026-05-08 08:00 | 13.30233 | 77.38520 | 7882 ft | 272 kts | 226° |
| 2026-05-08 08:00 | 13.28762 | 77.37436 | 7718 ft | 255 kts | 197° |
| 2026-05-08 08:01 | 13.27079 | 77.37061 | 7509 ft | 247 kts | 179° |
| 2026-05-08 08:01 | 13.25387 | 77.37199 | 7246 ft | 241 kts | 162° |
| 2026-05-08 08:01 | 13.23847 | 77.37812 | 7007 ft | 234 kts | 146° |
| 2026-05-08 08:01 | 13.22589 | 77.38795 | 6768 ft | 228 kts | 130° |
| 2026-05-08 08:02 | 13.21643 | 77.40082 | 6476 ft | 225 kts | 116° |
| 2026-05-08 08:02 | 13.21078 | 77.41566 | 6236 ft | 221 kts | 101° |
| 2026-05-08 08:02 | 13.20918 | 77.43131 | 6004 ft | 219 kts | 89° |
| 2026-05-08 08:02 | 13.20907 | 77.44706 | 5984 ft | 222 kts | 90° |
| 2026-05-08 08:03 | 13.20894 | 77.46282 | 6001 ft | 223 kts | 89° |
| 2026-05-08 08:03 | 13.20882 | 77.47875 | 5993 ft | 223 kts | 89° |
| 2026-05-08 08:03 | 13.20870 | 77.49479 | 5988 ft | 224 kts | 90° |
| 2026-05-08 08:03 | 13.20858 | 77.51055 | 6004 ft | 223 kts | 90° |
| 2026-05-08 08:04 | 13.20845 | 77.52651 | 5880 ft | 223 kts | 90° |
| 2026-05-08 08:04 | 13.20833 | 77.54242 | 5626 ft | 219 kts | 90° |
| 2026-05-08 08:04 | 13.20821 | 77.55788 | 5354 ft | 213 kts | 90° |
| 2026-05-08 08:04 | 13.20809 | 77.57270 | 5114 ft | 207 kts | 89° |
| 2026-05-08 08:05 | 13.20797 | 77.58741 | 4850 ft | 204 kts | 89° |
| 2026-05-08 08:05 | 13.20785 | 77.60193 | 4619 ft | 200 kts | 90° |
| 2026-05-08 08:05 | 13.20774 | 77.61569 | 4346 ft | 189 kts | 89° |
| 2026-05-08 08:05 | 13.20763 | 77.62846 | 4150 ft | 166 kts | 89° |
| 2026-05-08 08:06 | 13.20754 | 77.63954 | 3927 ft | 144 kts | 88° |
| 2026-05-08 08:06 | 13.20746 | 77.64932 | 3748 ft | 136 kts | 86° |
| 2026-05-08 08:06 | 13.20739 | 77.65926 | 3594 ft | 142 kts | 89° |
| 2026-05-08 08:06 | 13.20730 | 77.66937 | 3386 ft | 144 kts | 90° |
| 2026-05-08 08:07 | 13.20720 | 77.67969 | 3202 ft | 145 kts | 88° |
| 2026-05-08 08:07 | 13.20695 | 77.68992 | 3055 ft | 142 kts | 87° |
| 2026-05-08 08:07 | 13.20698 | 77.70022 | 3064 ft | 157 kts | 89° |
| 2026-05-08 08:07 | 13.20687 | 77.71268 | 3557 ft | 180 kts | 87° |
| 2026-05-08 08:08 | 13.20770 | 77.72542 | 4507 ft | 186 kts | 86° |
| 2026-05-08 08:08 | 13.20879 | 77.73930 | 4914 ft | 203 kts | 85° |
| 2026-05-08 08:08 | 13.20970 | 77.75408 | 5280 ft | 213 kts | 88° |
| 2026-05-08 08:08 | 13.21162 | 77.76937 | 5789 ft | 218 kts | 69° |
| 2026-05-08 08:09 | 13.22073 | 77.78173 | 6356 ft | 223 kts | 37° |
| 2026-05-08 08:09 | 13.23534 | 77.78711 | 6874 ft | 233 kts | 8° |
| 2026-05-08 08:09 | 13.25169 | 77.78702 | 6982 ft | 233 kts | 360° |
| 2026-05-08 08:09 | 13.26773 | 77.78586 | 7011 ft | 234 kts | 359° |
| 2026-05-08 08:10 | 13.28399 | 77.78445 | 7007 ft | 234 kts | 355° |
| 2026-05-08 08:10 | 13.29901 | 77.77805 | 7005 ft | 241 kts | 323° |
| 2026-05-08 08:10 | 13.30900 | 77.76400 | 7009 ft | 251 kts | 291° |
| 2026-05-08 08:10 | 13.31159 | 77.74640 | 7008 ft | 254 kts | 272° |
| 2026-05-08 08:11 | 13.31143 | 77.72819 | 7008 ft | 255 kts | 269° |
| 2026-05-08 08:11 | 13.31085 | 77.70992 | 7007 ft | 255 kts | 269° |
| 2026-05-08 08:11 | 13.31029 | 77.69190 | 7009 ft | 256 kts | 269° |
| 2026-05-08 08:11 | 13.30969 | 77.67353 | 7013 ft | 256 kts | 269° |
| 2026-05-08 08:12 | 13.30909 | 77.65533 | 7008 ft | 254 kts | 269° |
| 2026-05-08 08:12 | 13.30850 | 77.63706 | 7006 ft | 256 kts | 268° |
| 2026-05-08 08:12 | 13.30800 | 77.61900 | 7004 ft | 255 kts | 269° |
| 2026-05-08 08:12 | 13.30747 | 77.60070 | 7006 ft | 255 kts | 269° |
| 2026-05-08 08:13 | 13.30695 | 77.58266 | 6999 ft | 254 kts | 269° |
| 2026-05-08 08:13 | 13.30637 | 77.56453 | 7001 ft | 253 kts | 269° |
| 2026-05-08 08:13 | 13.30569 | 77.54642 | 6998 ft | 254 kts | 269° |
| 2026-05-08 08:13 | 13.30466 | 77.52826 | 6995 ft | 254 kts | 260° |
| 2026-05-08 08:14 | 13.29852 | 77.51165 | 6911 ft | 251 kts | 242° |
| 2026-05-08 08:14 | 13.28998 | 77.49586 | 6611 ft | 251 kts | 239° |
| 2026-05-08 08:14 | 13.28136 | 77.48048 | 6377 ft | 251 kts | 239° |
| 2026-05-08 08:14 | 13.27226 | 77.46528 | 6134 ft | 248 kts | 228° |
| 2026-05-08 08:15 | 13.25857 | 77.45522 | 5988 ft | 241 kts | 194° |
| 2026-05-08 08:15 | 13.24271 | 77.45425 | 5982 ft | 221 kts | 161° |
| 2026-05-08 08:15 | 13.23028 | 77.46174 | 5980 ft | 202 kts | 128° |
| 2026-05-08 08:15 | 13.22213 | 77.47316 | 6022 ft | 195 kts | 120° |
| 2026-05-08 08:16 | 13.21502 | 77.48499 | 6000 ft | 193 kts | 119° |
| 2026-05-08 08:16 | 13.20942 | 77.49713 | 5991 ft | 190 kts | 101° |
| 2026-05-08 08:16 | 13.20850 | 77.51065 | 5995 ft | 189 kts | 89° |
| 2026-05-08 08:16 | 13.20844 | 77.52383 | 5901 ft | 180 kts | 90° |
| 2026-05-08 08:17 | 13.20839 | 77.53222 | 5790 ft | 175 kts | 89° |
| 2026-05-08 08:17 | 13.20827 | 77.54866 | 5530 ft | 172 kts | 89° |
| 2026-05-08 08:17 | 13.20818 | 77.56099 | 5313 ft | 172 kts | 89° |
| 2026-05-08 08:17 | 13.20808 | 77.57322 | 5112 ft | 170 kts | 89° |
| 2026-05-08 08:18 | 13.20798 | 77.58510 | 4910 ft | 168 kts | 89° |
| 2026-05-08 08:18 | 13.20789 | 77.59707 | 4697 ft | 165 kts | 90° |
| 2026-05-08 08:18 | 13.20780 | 77.60851 | 4486 ft | 154 kts | 90° |
| 2026-05-08 08:18 | 13.20771 | 77.61923 | 4287 ft | 148 kts | 90° |
| 2026-05-08 08:19 | 13.20762 | 77.62973 | 4108 ft | 145 kts | 89° |
| 2026-05-08 08:19 | 13.20754 | 77.63987 | 3921 ft | 143 kts | 89° |
| 2026-05-08 08:19 | 13.20744 | 77.64668 | 3817 ft | 146 kts | 88° |
| 2026-05-08 08:19 | 13.20735 | 77.66058 | 3550 ft | 145 kts | 89° |
| 2026-05-08 08:20 | 13.20730 | 77.66745 | 3375 ft | 145 kts | 90° |
| 2026-05-08 08:20 | 13.20728 | 77.67776 | 3188 ft | 145 kts | 86° |
| 2026-05-08 08:20 | 13.20718 | 77.68805 | 3061 ft | 143 kts | 87° |
| 2026-05-08 08:20 | 13.20713 | 77.69775 | 3011 ft | 118 kts | 91° |
| 2026-05-08 08:21 | 13.20706 | 77.70339 | 3011 ft | 35 kts | 90° |
| 2026-05-08 08:21 | 13.20673 | 77.70486 | 3011 ft | 18 kts | 116° |
| 2026-05-08 08:21 | 13.20620 | 77.70588 | 3012 ft | 11 kts | 120° |
| 2026-05-08 08:21 | 13.20607 | 77.70610 | 3013 ft | 0 kts | 121° |
| 2026-05-08 08:22 | 13.20602 | 77.70617 | 3011 ft | 2 kts | 121° |
| 2026-05-08 08:22 | 13.20592 | 77.70636 | 3011 ft | 4 kts | 121° |
| 2026-05-08 08:22 | 13.20575 | 77.70665 | 3011 ft | 6 kts | 120° |
| 2026-05-08 08:22 | 13.20551 | 77.70707 | 3014 ft | 8 kts | 120° |
| 2026-05-08 08:23 | 13.20526 | 77.70764 | 3011 ft | 9 kts | 98° |
| 2026-05-08 08:23 | 13.20529 | 77.70836 | 3011 ft | 11 kts | 89° |
| 2026-05-08 08:23 | 13.20528 | 77.70920 | 3011 ft | 13 kts | 91° |
| 2026-05-08 08:23 | 13.20527 | 77.71018 | 3011 ft | 15 kts | 90° |
| 2026-05-08 08:24 | 13.20527 | 77.71130 | 3011 ft | 16 kts | 90° |
| 2026-05-08 08:24 | 13.20525 | 77.71242 | 3011 ft | 12 kts | 92° |
| 2026-05-08 08:24 | 13.20478 | 77.71277 | 3011 ft | 9 kts | 180° |
| 2026-05-08 08:24 | 13.20406 | 77.71277 | 3011 ft | 11 kts | 180° |
| 2026-05-08 08:25 | 13.20324 | 77.71276 | 3011 ft | 13 kts | 180° |
| 2026-05-08 08:25 | 13.20257 | 77.71271 | 3011 ft | 6 kts | 207° |
| 2026-05-08 08:25 | 13.20238 | 77.71229 | 3011 ft | 8 kts | 268° |
| 2026-05-08 08:25 | 13.20240 | 77.71169 | 3011 ft | 9 kts | 271° |
| 2026-05-08 08:26 | 13.20241 | 77.71098 | 3011 ft | 11 kts | 270° |
| 2026-05-08 08:26 | 13.20241 | 77.71055 | 3011 ft | 3 kts | 270° |
| 2026-05-08 08:26 | 13.20231 | 77.71040 | 3011 ft | 3 kts | 213° |
| 2026-05-08 08:26 | 13.20205 | 77.71037 | 3011 ft | 5 kts | 178° |
| 2026-05-08 08:27 | 13.20184 | 77.71039 | 3011 ft | 1 kts | 177° |
| 2026-05-08 08:27 | 13.20170 | 77.71039 | 3013 ft | 3 kts | 179° |
| 2026-05-08 08:27 | 13.20168 | 77.71039 | 3011 ft | 0 kts | 179° |